Terminal Aerodrome Forecast
Issued by NWS

Home | Current Version | Previous Version | Text Only | Print | Product List | Glossary On
Versions: 1 2 3 4 5 6 7 8 9 10 11 12 13 14 15 16 17 18 19 20 21 22 23 24 25 26 27 28
500
FTUS41 KBUF 220301 AAA
TAFJHW
TAF AMD
KJHW 220301Z 2203/2224 18004KT P6SM BKN090
     FM220500 17007KT 3SM -DZ BR OVC009
     FM221200 15005KT P6SM OVC015
     FM221500 14005KT P6SM OVC025
     FM222200 11009KT P6SM OVC100
      AMD LTD TO VIS AND WIND=

USA.gov is the U.S. government's official web portal to all federal, state and local government web resources and services.